Tecolote Canyon (492, 23013) Station Data

Red Flag Warning: No
Fire Weather Zone: 243
SDGE Region: Beach Cities
Lat/Lon: 32.791/-117.184

Observations

Time Wind Speed/Gust Temp(F) RH Fuel Moist Fuel Temp(F) Dewpt(F) Tmax(F) Tmin(F) Accum Precip 10-min Precip SL Press(mb)
2/27 11:40pm 273 4 G 9 52° 95% - - 51° 57.5° 50.5° - - -
2/27 11:20pm 268 6 G 15 52° 95% - - 51° 57.5° 50.5° - - -
2/27 11:00pm 273 6 G 11 53° 95% - - 51° 57.5° 50.5° - - -
2/27 10:50pm 276 6 G 14 53° 95% - - 52° 57.5° 50.5° - - -
2/27 10:20pm 296 7 G 14 54° 95% - - 52° 57.5° 50.5° - - -
2/27 10:10pm 285 5 G 14 54° 95% - - 53° 57.5° 50.5° - - -
2/27 10:00pm 300 5 G 11 54° 95% - - 53° 57.5° 50.5° - - -
2/27 9:50pm 287 6 G 13 54° 95% - - 53° 57.5° 50.5° - - -
2/27 9:40pm 260 5 G 12 54° 95% - - 53° 57.5° 50.5° - - -
2/27 9:20pm 216 11 G 26 56° 94% - - 54° 57.5° 50.5° - - -
2/27 9:10pm 194 16 G 23 56° 93% - - 54° 57.5° 50.5° - - -
2/27 9:00pm 186 18 G 24 57° 93% - - 55° 57.5° 50.5° - - -
2/27 8:50pm 189 17 G 25 57° 93% - - 55° 57.5° 50.5° - - -
2/27 8:40pm 189 17 G 25 57° 93% - - 55° 57.5° 50.5° - - -
2/27 8:30pm 189 16 G 28 56° 94% - - 55° 57.5° 50.5° - - -
2/27 8:20pm 191 17 G 27 56° 95% - - 55° 57.5° 50.5° - - -
2/27 8:10pm 190 14 G 24 56° 95% - - 54° 57.5° 50.5° - - -
2/27 8:00pm 189 14 G 21 56° 94% - - 54° 57.5° 50.5° - - -
2/27 7:40pm 196 20 G 29 57° 94% - - 55° 57.5° 50.5° - - -
2/27 7:10pm 192 19 G 25 57° 94% - - 55° 57.5° 50.5° - - -
2/27 6:40pm 192 19 G 27 56° 94% - - 55° 57.2° 50.5° - - -
2/27 6:30pm 189 15 G 21 56° 94% - - 54° 57.2° 50.5° - - -
2/27 6:20pm 189 17 G 24 56° 94% - - 54° 57.2° 50.5° - - -
2/27 6:10pm 194 18 G 27 56° 94% - - 54° 57.2° 50.5° - - -
2/27 6:00pm 196 17 G 28 56° 95% - - 55° 57.2° 50.5° - - -
2/27 5:50pm 193 15 G 20 57° 95% - - 55° 57.2° 50.5° - - -
2/27 5:40pm 193 15 G 21 57° 95% - - 55° 57.2° 50.5° - - -
2/27 5:30pm 193 18 G 29 56° 95% - - 55° 57.1° 50.5° - - -
2/27 5:10pm 197 18 G 26 56° 95% - - 55° 57.1° 50.5° - - -
2/27 5:00pm 194 19 G 28 56° 95% - - 55° 57.1° 50.5° - - -
2/27 4:50pm 194 17 G 26 56° 95% - - 55° 57.1° 50.5° - - -
2/27 4:40pm 192 21 G 30 56° 95% - - 55° 57.1° 50.5° - - -
2/27 4:30pm 190 17 G 25 56° 95% - - 55° 57.1° 50.5° - - -
2/27 4:20pm 188 17 G 26 56° 95% - - 55° 57.1° 50.5° - - -
2/27 4:10pm 186 18 G 31 56° 95% - - 55° 57.1° 50.5° - - -
2/27 4:00pm 186 18 G 25 56° 95% - - 55° 57.1° 50.5° - - -
2/27 3:50pm 187 20 G 29 56° 95% - - 55° 57.1° 50.5° - - -
2/27 3:40pm 189 21 G 29 56° 95% - - 55° 57.1° 50.5° - - -
2/27 3:30pm 196 18 G 31 56° 95% - - 55° 57.1° 50.5° - - -
2/27 3:20pm 187 19 G 26 56° 94% - - 55° 57.1° 50.5° - - -
2/27 3:10pm 185 17 G 24 56° 94% - - 55° 57.1° 50.5° - - -
2/27 3:00pm 179 17 G 28 56° 95% - - 55° 57.1° 50.5° - - -
2/27 2:50pm 178 18 G 28 56° 95% - - 55° 57.1° 50.5° - - -
2/27 2:40pm 179 18 G 28 56° 95% - - 55° 57.1° 50.5° - - -
2/27 2:30pm 184 19 G 29 56° 95% - - 55° 57.1° 50.5° - - -
2/27 2:20pm 191 18 G 28 56° 95% - - 55° 57.1° 50.5° - - -
2/27 2:10pm 189 18 G 26 56° 95% - - 55° 57.1° 50.5° - - -
2/27 2:00pm 190 20 G 30 56° 95% - - 55° 57.1° 50.5° - - -
2/27 1:50pm 188 20 G 26 56° 95% - - 55° 57.1° 50.5° - - -
2/27 1:40pm 193 20 G 29 56° 95% - - 55° 57.1° 50.5° - - -
2/27 1:30pm 193 21 G 32 56° 94% - - 54° 57.1° 50.5° - - -
2/27 1:20pm 189 21 G 31 56° 94% - - 54° 57.1° 50.5° - - -
2/27 1:10pm 190 23 G 33 56° 94% - - 54° 57.1° 50.5° - - -
2/27 1:00pm 193 24 G 33 56° 94% - - 54° 57.1° 50.5° - - -
2/27 12:50pm 195 19 G 30 56° 94% - - 54° 57.1° 50.5° - - -
2/27 12:40pm 194 22 G 33 56° 94% - - 54° 57.1° 50.5° - - -
2/27 12:30pm 189 23 G 32 56° 94% - - 54° 57.1° 50.5° - - -
2/27 12:20pm 190 22 G 32 56° 94% - - 54° 57.1° 50.5° - - -
2/27 12:10pm 193 21 G 31 56° 94% - - 55° 57.1° 50.5° - - -
2/27 12:00pm 192 23 G 35 56° 95% - - 55° 57.1° 50.5° - - -
2/27 11:50am 192 24 G 37 56° 95% - - 54° 57.1° 50.5° - - -
2/27 11:40am 189 22 G 31 56° 95% - - 54° 57.1° 50.5° - - -
2/27 11:30am 185 17 G 25 56° 95% - - 54° 57.1° 50.5° - - -
2/27 11:20am 185 17 G 26 56° 94% - - 54° 57.1° 50.5° - - -
2/27 11:10am 188 20 G 29 56° 94% - - 54° 57.1° 50.5° - - -
2/27 11:00am 183 19 G 27 55° 93% - - 53° 57.1° 50.5° - - -
2/27 10:50am 184 18 G 28 55° 94% - - 53° 57.1° 50.5° - - -
2/27 10:40am 188 20 G 29 55° 94% - - 54° 57.1° 50.5° - - -
2/27 10:30am 191 20 G 28 55° 94% - - 54° 57.1° 50.5° - - -
2/27 10:20am 188 19 G 29 55° 94% - - 54° 57.1° 50.5° - - -
2/27 10:10am 187 20 G 33 56° 95% - - 54° 57.1° 50.5° - - -
2/27 10:00am 189 23 G 36 56° 95% - - 55° 57.1° 50.5° - - -
2/27 9:50am 187 21 G 35 56° 95% - - 55° 57.1° 50.5° - - -
2/27 9:40am 188 19 G 33 56° 96% - - 55° 57.1° 50.5° - - -
2/27 9:30am 193 20 G 29 56° 95% - - 55° 57.1° 50.5° - - -
2/27 9:20am 192 18 G 29 56° 95% - - 55° 57.1° 50.5° - - -
2/27 9:10am 190 21 G 30 56° 95% - - 55° 57.1° 50.5° - - -
2/27 9:00am 189 19 G 30 56° 95% - - 55° 57.1° 50.5° - - -
2/27 8:50am 191 19 G 29 56° 95% - - 55° 57.1° 50.5° - - -
2/27 8:40am 194 18 G 29 56° 95% - - 55° 57.1° 50.5° - - -
2/27 8:30am 191 20 G 27 56° 95% - - 55° 57.1° 50.5° - - -
2/27 8:20am 190 20 G 27 56° 95% - - 55° 57.1° 50.5° - - -
2/27 8:10am 187 20 G 29 56° 95% - - 55° 57.1° 50.5° - - -
2/27 8:00am 189 18 G 26 56° 95% - - 55° 57.1° 50.5° - - -
2/27 7:50am 190 16 G 23 56° 95% - - 55° 57.1° 50.5° - - -
2/27 7:40am 187 16 G 25 56° 95% - - 55° 57.1° 50.5° - - -
2/27 7:30am 190 17 G 25 56° 95% - - 55° 57.1° 50.5° - - -
2/27 7:20am 191 18 G 24 56° 95% - - 55° 57.1° 50.5° - - -
2/27 7:10am 189 17 G 24 56° 95% - - 55° 57.1° 50.5° - - -
2/27 7:00am 188 17 G 23 56° 95% - - 55° 57.1° 50.5° - - -
2/27 6:50am 191 17 G 24 56° 95% - - 55° 57.1° 50.5° - - -
2/27 6:40am 190 20 G 29 56° 95% - - 55° 57.1° 50.5° - - -
2/27 6:30am 189 19 G 30 57° 95% - - 55° 57.1° 50.5° - - -
2/27 6:20am 191 21 G 28 56° 95% - - 55° 57.1° 50.5° - - -
2/27 6:10am 190 19 G 26 56° 95% - - 55° 57° 50.5° - - -
2/27 6:00am 188 21 G 29 56° 95% - - 55° 57° 50.5° - - -
2/27 5:50am 191 19 G 27 56° 95% - - 55° 56.9° 50.5° - - -
2/27 5:40am 187 19 G 28 56° 95% - - 55° 56.9° 50.5° - - -
2/27 5:30am 191 19 G 24 56° 95% - - 55° 56.8° 50.5° - - -
2/27 5:20am 191 17 G 26 56° 95% - - 55° 56.8° 50.5° - - -
2/27 5:10am 192 16 G 23 56° 95% - - 55° 56.7° 50.5° - - -
2/27 5:00am 188 17 G 25 56° 95% - - 55° 56.7° 50.5° - - -
2/27 4:50am 189 16 G 25 56° 95% - - 55° 56.7° 50.5° - - -
2/27 4:40am 192 15 G 23 56° 95% - - 54° 56.5° 50.5° - - -
2/27 4:30am 179 7 G 16 54° 95% - - 52° 55° 50.5° - - -
2/27 4:20am 173 4 G 8 53° 95% - - 52° 53.9° 50.5° - - -
2/27 4:10am 152 4 G 6 53° 95% - - 51° 53.4° 50.5° - - -
2/27 4:00am 156 5 G 10 52° 95% - - 51° 53.1° 50.5° - - -
2/27 3:50am 101 3 G 6 52° 95% - - 51° 52.7° 50.5° - - -
2/27 3:40am 120 4 G 7 52° 95% - - 50° 52.5° 50.5° - - -
2/27 3:30am 87 4 G 6 52° 95% - - 50° 52.3° 50.5° - - -
2/27 3:20am 81 4 G 9 52° 95% - - 50° 52.2° 50.5° - - -
2/27 3:10am 74 3 G 6 51° 95% - - 50° 52° 50.5° - - -
2/27 3:00am 53 3 G 6 51° 95% - - 50° 52° 50.5° - - -
2/27 2:50am 42 3 G 6 51° 94% - - 50° 52° 50.5° - - -
2/27 2:40am 27 2 G 3 51° 94% - - 49° 52° 50.5° - - -
2/27 2:30am 35 2 G 5 51° 94% - - 49° 52° 50.5° - - -
2/27 2:20am 58 3 G 8 51° 94% - - 49° 52° 50.5° - - -
2/27 2:10am 72 3 G 8 51° 94% - - 50° 52° 50.5° - - -
2/27 2:00am 67 4 G 7 51° 94% - - 50° 52° 50.5° - - -
2/27 1:50am 71 3 G 6 51° 94% - - 50° 52° 50.5° - - -
2/27 1:40am 65 2 G 4 51° 94% - - 50° 52° 50.5° - - -
2/27 1:30am 68 2 G 5 51° 94% - - 50° 51.9° 50.5° - - -
2/27 1:20am 95 4 G 7 51° 94% - - 50° 51.9° 50.5° - - -
2/27 1:10am 99 4 G 7 51° 94% - - 50° 51.9° 50.5° - - -
2/27 1:00am 86 3 G 5 51° 94% - - 50° 51.9° 50.5° - - -
2/27 12:50am 62 2 G 6 51° 94% - - 49° 51.7° 50.5° - - -
2/27 12:40am 40 2 G 4 51° 94% - - 49° 51.6° 50.5° - - -
2/27 12:30am 43 2 G 3 51° 94% - - 49° 51.6° 50.5° - - -
2/27 12:20am 51 3 G 5 51° 93% - - 49° 51.6° 50.5° - - -
2/27 12:10am 47 2 G 4 51° 93% - - 49° 51.6° 50.5° - - -
2/27 12:00am 64 1 G 2 51° 93% - - 49° 57.1° 49.3° - - -
2/26 11:50pm 85 2 G 4 51° 93% - - 49° 57.1° 49.3° - - -
2/26 11:40pm 91 3 G 4 51° 92% - - 49° 57.1° 49.3° - - -
2/26 11:30pm 92 2 G 4 51° 92% - - 49° 57.1° 49.3° - - -
2/26 11:20pm 78 2 G 4 51° 91% - - 48° 57.1° 49.3° - - -
2/26 11:10pm 104 2 G 5 51° 90% - - 48° 57.1° 49.3° - - -
2/26 11:00pm 130 2 G 4 51° 86% - - 47° 57.1° 49.3° - - -
2/26 10:50pm 182 2 G 4 51° 82% - - 46° 57.1° 49.3° - - -
2/26 10:40pm 78 1 G 3 51° 79% - - 45° 57.1° 49.3° - - -
2/26 10:30pm 164 1 G 2 51° 77% - - 45° 57.1° 49.3° - - -
2/26 10:20pm 73 1 G 2 52° 77% - - 44° 57.1° 49.3° - - -
2/26 10:10pm 47 2 G 3 51° 78% - - 44° 57.1° 49.3° - - -
2/26 10:00pm 52 3 G 4 51° 79% - - 44° 57.1° 49.3° - - -
2/26 9:50pm 72 3 G 4 51° 78% - - 44° 57.1° 49.3° - - -
2/26 9:40pm 48 2 G 3 51° 79% - - 44° 57.1° 49.3° - - -
2/26 9:30pm 24 2 G 2 50° 80% - - 44° 57.1° 49.3° - - -
2/26 9:20pm 49 0 G 2 51° 78% - - 44° 57.1° 49.3° - - -
2/26 9:10pm 54 3 G 4 51° 77% - - 44° 57.1° 49.3° - - -
2/26 9:00pm 50 3 G 4 51° 77% - - 44° 57.1° 49.3° - - -
2/26 8:50pm 35 1 G 3 52° 75% - - 44° 57.1° 49.3° - - -
2/26 8:40pm 358 1 G 2 52° 75% - - 44° 57.1° 49.3° - - -
2/26 8:30pm 12 1 G 1 53° 73% - - 44° 57.1° 49.3° - - -
2/26 8:20pm 197 1 G 2 54° 71% - - 45° 57.1° 49.3° - - -
2/26 8:10pm 207 3 G 4 54° 71% - - 44° 57.1° 49.3° - - -
2/26 8:00pm 205 3 G 4 54° 71% - - 44° 57.1° 49.3° - - -
2/26 7:50pm 210 4 G 5 53° 71% - - 44° 57.1° 49.3° - - -
2/26 7:40pm 208 4 G 6 54° 71% - - 44° 57.1° 49.3° - - -
2/26 7:30pm 213 4 G 7 54° 71% - - 44° 57.1° 49.3° - - -
2/26 7:20pm 217 5 G 6 54° 71% - - 45° 57.1° 49.3° - - -
2/26 7:10pm 215 4 G 6 54° 71% - - 44° 57.1° 49.3° - - -
2/26 7:00pm 215 5 G 7 54° 71% - - 44° 57.1° 49.3° - - -
2/26 6:50pm 213 3 G 6 54° 72% - - 45° 57.1° 49.3° - - -
2/26 6:40pm 213 4 G 5 54° 72% - - 45° 57.1° 49.3° - - -
2/26 6:30pm 228 4 G 6 54° 71% - - 45° 57.1° 49.3° - - -
2/26 6:20pm 226 5 G 9 54° 72% - - 45° 57.1° 49.3° - - -
2/26 6:10pm 232 5 G 9 54° 72% - - 45° 57.1° 49.3° - - -
2/26 6:00pm 234 5 G 10 54° 72% - - 45° 57.1° 49.3° - - -
2/26 5:50pm 235 6 G 10 54° 72% - - 45° 57.1° 49.3° - - -
2/26 5:40pm 232 6 G 10 55° 73% - - 46° 57.1° 49.3° - - -
2/26 5:30pm 242 5 G 8 55° 74% - - 47° 57.1° 49.3° - - -
2/26 5:20pm 232 4 G 9 55° 74% - - 47° 57.1° 49.3° - - -
2/26 5:10pm 232 5 G 10 55° 73% - - 47° 57.1° 49.3° - - -
2/26 5:00pm 243 5 G 8 55° 72% - - 46° 57.1° 49.3° - - -